Time;durP1;ratioP1;P1;durP2;ratioP2;P2;SDS_P1;SDS_P2;PMS_P1;PMS_P2;Temp;Humidity;BMP_temperature;BMP_pressure;BME280_temperature;BME280_humidity;BME280_pressure;Samples;Min_cycle;Max_cycle;Signal;HPM_P1;HPM_P2
2022/06/04 00:00:39;;;;;;;2.25;2.05;;;19.10;66.90;;;;;;5024556;28;20038;-58
2022/06/04 00:03:06;;;;;;;2.22;2.13;;;19.10;66.60;;;;;;5032336;28;20053;-58
2022/06/04 00:05:35;;;;;;;2.08;1.98;;;19.00;66.60;;;;;;5032215;28;20025;-58
2022/06/04 00:08:02;;;;;;;2.28;2.13;;;19.00;66.60;;;;;;5032405;28;20080;-58
2022/06/04 00:16:01;;;;;;;3.50;2.20;;;19.00;66.50;;;;;;5033153;28;20052;-59
2022/06/04 00:18:27;;;;;;;2.47;2.28;;;19.00;66.60;;;;;;5032360;28;20037;-59
2022/06/04 00:20:53;;;;;;;2.28;2.17;;;19.00;66.50;;;;;;5035750;28;20370;-58
2022/06/04 00:23:21;;;;;;;2.15;2.03;;;19.00;66.50;;;;;;5035823;28;20469;-58
2022/06/04 00:25:50;;;;;;;2.28;2.08;;;18.90;66.40;;;;;;5035657;28;20032;-58
2022/06/04 00:28:18;;;;;;;2.28;2.15;;;19.00;66.40;;;;;;5035870;28;20017;-58
2022/06/04 00:30:44;;;;;;;2.65;2.45;;;18.90;66.40;;;;;;5035815;28;20044;-58
2022/06/04 00:33:10;;;;;;;2.63;2.42;;;18.90;66.60;;;;;;5023332;28;20373;-58
2022/06/04 00:35:36;;;;;;;2.22;2.13;;;18.90;66.80;;;;;;5035058;28;20536;-59
2022/06/04 00:38:05;;;;;;;2.50;2.30;;;18.90;66.90;;;;;;5035238;28;20127;-59
2022/06/04 00:40:52;;;;;;;2.70;2.50;;;18.90;66.90;;;;;;5024857;28;20021;-58
2022/06/04 00:43:19;;;;;;;2.40;2.20;;;18.90;66.80;;;;;;5034966;28;20056;-58
2022/06/04 00:46:14;;;;;;;2.40;2.20;;;18.90;66.80;;;;;;5034772;28;20017;-59
2022/06/04 00:48:40;;;;;;;2.55;2.20;;;18.80;66.80;;;;;;5018648;28;20028;-58
2022/06/04 00:51:07;;;;;;;2.38;2.17;;;18.80;66.80;;;;;;5028061;28;20025;-58
2022/06/04 00:53:34;;;;;;;4.63;3.35;;;18.80;66.80;;;;;;5033157;28;20075;-59
2022/06/04 00:56:27;;;;;;;3.17;2.63;;;18.80;66.80;;;;;;5034552;28;20022;-58
2022/06/04 00:59:14;;;;;;;2.47;2.28;;;18.80;66.90;;;;;;5022638;28;20033;-58
2022/06/04 01:01:53;;;;;;;2.53;2.33;;;18.80;67.40;;;;;;5034514;28;20026;-58
2022/06/04 01:04:56;;;;;;;2.75;2.55;;;18.70;67.00;;;;;;5034350;28;20116;-58
2022/06/04 01:07:22;;;;;;;2.35;2.15;;;18.70;67.20;;;;;;5033214;28;20067;-58
2022/06/04 01:09:53;;;;;;;2.55;2.35;;;18.70;67.20;;;;;;5033474;28;20029;-58
2022/06/04 01:12:25;;;;;;;;;;;18.70;67.20;;;;;;5035260;28;20083;-58
2022/06/04 01:15:03;;;;;;;2.15;2.05;;;18.70;67.30;;;;;;5039143;28;20396;-59
2022/06/04 01:17:55;;;;;;;2.55;2.22;;;18.70;67.40;;;;;;5035518;28;20021;-58
2022/06/04 01:20:46;;;;;;;2.60;2.40;;;18.60;67.30;;;;;;5027297;28;20036;-58
2022/06/04 01:23:30;;;;;;;;;;;18.60;67.60;;;;;;5034549;28;20103;-58
2022/06/04 01:26:43;;;;;;;2.72;2.40;;;18.60;67.70;;;;;;5032823;28;20361;-58
2022/06/04 01:29:16;;;;;;;2.80;2.50;;;18.60;67.80;;;;;;5031808;28;20040;-59
2022/06/04 01:31:44;;;;;;;2.75;2.50;;;18.50;67.90;;;;;;5034534;28;20025;-58
2022/06/04 01:34:12;;;;;;;2.20;2.10;;;18.50;68.20;;;;;;5034388;28;20033;-58
2022/06/04 01:36:41;;;;;;;2.60;2.40;;;18.50;68.40;;;;;;5029815;28;20032;-58
2022/06/04 01:39:17;;;;;;;2.70;2.50;;;18.50;68.40;;;;;;5034128;28;20047;-58
2022/06/04 01:41:50;;;;;;;2.80;2.50;;;18.50;68.80;;;;;;5034496;28;20045;-58
2022/06/04 01:44:36;;;;;;;2.58;2.38;;;18.50;69.10;;;;;;5032361;28;20054;-58
2022/06/04 01:47:07;;;;;;;2.75;2.50;;;18.40;69.00;;;;;;5034432;28;20021;-57
2022/06/04 01:49:47;;;;;;;2.90;2.70;;;18.40;68.90;;;;;;5032710;28;20025;-58
2022/06/04 01:52:22;;;;;;;2.97;2.67;;;18.40;68.90;;;;;;5031250;28;20029;-58
2022/06/04 01:55:01;;;;;;;2.63;2.42;;;18.40;69.20;;;;;;5028488;28;20518;-58
2022/06/04 01:57:34;;;;;;;2.50;2.30;;;18.40;69.20;;;;;;5023683;28;20032;-58
2022/06/04 02:00:09;;;;;;;2.60;2.40;;;18.40;69.80;;;;;;5020476;28;20045;-58
2022/06/04 02:02:56;;;;;;;2.65;2.45;;;18.40;69.30;;;;;;5022361;28;20389;-58
2022/06/04 02:05:31;;;;;;;2.72;2.53;;;18.40;69.40;;;;;;5032830;28;20018;-60
2022/06/04 02:08:01;;;;;;;2.80;2.60;;;18.40;69.60;;;;;;5034008;28;20025;-61
2022/06/04 02:10:37;;;;;;;3.40;2.92;;;18.40;69.60;;;;;;5030823;28;20105;-61
2022/06/04 02:13:08;;;;;;;3.15;2.72;;;18.40;69.60;;;;;;5033708;28;20041;-61
2022/06/04 02:15:40;;;;;;;2.85;2.65;;;18.40;69.60;;;;;;5033585;28;20405;-60
2022/06/04 02:18:07;;;;;;;2.55;2.45;;;18.40;69.60;;;;;;5028647;28;20049;-60
2022/06/04 02:20:33;;;;;;;2.90;2.63;;;18.50;69.70;;;;;;5032875;28;20036;-61
2022/06/04 02:22:59;;;;;;;4.05;2.78;;;18.50;69.80;;;;;;5032326;28;20021;-61
2022/06/04 02:25:27;;;;;;;3.30;3.00;;;18.50;69.90;;;;;;5027676;28;20022;-60
2022/06/04 02:27:53;;;;;;;2.80;2.60;;;18.60;70.00;;;;;;5033816;28;20101;-61
2022/06/04 02:30:20;;;;;;;2.55;2.38;;;18.60;70.10;;;;;;5033893;28;20048;-58
2022/06/04 02:33:12;;;;;;;2.80;2.60;;;18.60;70.20;;;;;;5033189;28;20029;-58
2022/06/04 02:36:01;;;;;;;3.15;2.70;;;18.60;70.00;;;;;;5027280;28;20472;-58
2022/06/04 02:38:36;;;;;;;3.10;2.80;;;18.70;69.90;;;;;;5033056;28;20017;-61
2022/06/04 02:41:09;;;;;;;3.00;2.70;;;18.70;70.10;;;;;;5032898;28;20017;-61
2022/06/04 02:43:49;;;;;;;2.80;2.60;;;18.70;69.90;;;;;;5029947;28;20042;-61
2022/06/04 02:46:38;;;;;;;2.35;2.15;;;18.80;70.00;;;;;;5032455;28;20037;-61
2022/06/04 02:49:14;;;;;;;2.80;2.60;;;18.80;69.80;;;;;;5026638;28;20025;-61
2022/06/04 02:51:45;;;;;;;2.80;2.60;;;18.80;70.00;;;;;;5021977;28;20022;-61
2022/06/04 02:54:18;;;;;;;2.97;2.78;;;18.90;70.30;;;;;;5024380;28;20500;-60
2022/06/04 02:56:45;;;;;;;2.78;2.58;;;18.90;70.30;;;;;;5024296;28;20033;-61
2022/06/04 02:59:15;;;;;;;3.28;2.97;;;18.90;70.30;;;;;;5022698;28;20066;-60
2022/06/04 03:01:43;;;;;;;3.17;2.90;;;19.00;70.20;;;;;;5021316;28;20045;-61
2022/06/04 03:04:09;;;;;;;3.67;2.80;;;19.00;70.30;;;;;;5024043;28;20116;-61
2022/06/04 03:06:36;;;;;;;3.10;2.80;;;19.00;70.20;;;;;;5027032;28;20069;-61
2022/06/04 03:09:05;;;;;;;2.92;2.72;;;19.10;70.20;;;;;;5020352;28;20091;-60
2022/06/04 03:11:37;;;;;;;2.85;2.65;;;19.10;70.00;;;;;;5031042;28;20021;-61
2022/06/04 03:14:03;;;;;;;2.40;2.20;;;19.20;70.00;;;;;;5032638;28;20008;-61
2022/06/04 03:16:36;;;;;;;2.72;2.53;;;19.20;69.70;;;;;;5033912;28;20030;-59
2022/06/04 03:19:04;;;;;;;2.55;2.35;;;19.30;69.70;;;;;;5033484;28;20025;-59
2022/06/04 03:21:29;;;;;;;2.78;2.55;;;19.30;69.40;;;;;;5032602;28;20112;-60
2022/06/04 03:23:55;;;;;;;3.05;2.40;;;19.40;69.50;;;;;;5025066;28;20057;-60
2022/06/04 03:26:21;;;;;;;2.20;2.03;;;19.50;69.50;;;;;;5020781;28;20021;-60
2022/06/04 03:28:47;;;;;;;2.50;2.30;;;19.60;69.60;;;;;;5026290;28;20429;-59
2022/06/04 03:31:13;;;;;;;2.60;2.35;;;19.70;70.50;;;;;;5019806;28;20096;-59
2022/06/04 03:33:38;;;;;;;2.60;2.28;;;20.00;71.40;;;;;;5025845;28;20021;-59
2022/06/04 03:36:07;;;;;;;2.50;2.30;;;20.40;71.70;;;;;;5021946;28;20022;-60
2022/06/04 03:38:33;;;;;;;3.08;2.03;;;20.90;71.10;;;;;;5019456;28;20025;-60
2022/06/04 03:40:59;;;;;;;2.17;2.08;;;21.40;71.00;;;;;;5024690;28;20029;-60
2022/06/04 03:43:24;;;;;;;1.95;1.85;;;22.10;70.40;;;;;;5019455;28;20124;-60
2022/06/04 03:45:50;;;;;;;1.90;1.80;;;23.00;69.10;;;;;;5026283;28;20033;-60
2022/06/04 03:48:15;;;;;;;1.85;1.75;;;24.10;67.30;;;;;;5028932;28;20022;-59
2022/06/04 03:50:41;;;;;;;2.65;1.83;;;25.30;66.20;;;;;;5035166;28;20029;-60
2022/06/04 03:53:07;;;;;;;2.05;1.85;;;26.50;63.50;;;;;;5034743;28;20032;-60
2022/06/04 03:55:33;;;;;;;1.90;1.80;;;27.60;61.50;;;;;;5036135;28;20018;-60
2022/06/04 03:57:59;;;;;;;2.10;1.90;;;28.70;59.50;;;;;;5033216;28;20140;-60
2022/06/04 04:00:27;;;;;;;1.90;1.80;;;29.60;57.70;;;;;;5028608;28;20516;-60
2022/06/04 04:02:59;;;;;;;2.15;2.03;;;30.60;56.30;;;;;;5033662;28;20107;-60
2022/06/04 04:05:30;;;;;;;1.60;1.50;;;31.40;54.50;;;;;;5035607;28;20052;-60
2022/06/04 04:07:57;;;;;;;1.40;1.30;;;32.20;53.20;;;;;;5036388;28;20030;-60
2022/06/04 04:10:24;;;;;;;1.42;1.33;;;33.00;52.20;;;;;;5036416;28;20026;-60
2022/06/04 04:12:51;;;;;;;1.83;1.73;;;33.70;51.20;;;;;;5036126;28;20026;-60
2022/06/04 04:15:17;;;;;;;1.33;1.23;;;34.40;50.20;;;;;;5035038;28;20017;-60
2022/06/04 04:17:43;;;;;;;1.58;1.48;;;35.10;49.40;;;;;;5034115;28;20096;-60
2022/06/04 04:20:17;;;;;;;2.00;1.30;;;35.70;48.30;;;;;;5031647;28;20025;-60
2022/06/04 04:22:44;;;;;;;1.40;1.30;;;36.20;47.30;;;;;;5026785;28;20029;-60
2022/06/04 04:25:11;;;;;;;1.63;1.35;;;36.70;46.50;;;;;;5035789;28;20091;-60
2022/06/04 04:27:37;;;;;;;1.25;1.20;;;37.10;45.80;;;;;;5035397;28;20436;-60
2022/06/04 04:30:06;;;;;;;1.40;1.30;;;37.50;45.40;;;;;;5035396;28;20485;-60
2022/06/04 04:32:33;;;;;;;1.38;1.30;;;37.90;44.90;;;;;;5033811;28;20099;-60
2022/06/04 04:35:00;;;;;;;1.77;1.23;;;38.20;44.40;;;;;;5035139;28;20033;-60
2022/06/04 04:37:25;;;;;;;1.42;1.20;;;38.60;43.70;;;;;;5033916;28;20021;-60
2022/06/04 04:39:51;;;;;;;0.98;0.98;;;38.90;43.30;;;;;;5034963;28;20040;-60
2022/06/04 04:42:17;;;;;;;1.25;1.25;;;39.10;42.90;;;;;;5033822;28;20504;-60
2022/06/04 04:44:42;;;;;;;1.30;1.20;;;39.30;42.40;;;;;;5034713;28;20498;-60
2022/06/04 04:47:08;;;;;;;1.13;1.10;;;39.60;42.10;;;;;;5034666;28;20588;-60
2022/06/04 04:49:34;;;;;;;1.25;1.15;;;39.70;41.60;;;;;;5031697;28;20025;-60
2022/06/04 04:52:00;;;;;;;1.08;1.08;;;40.00;41.20;;;;;;5026300;28;20374;-61
2022/06/04 04:54:27;;;;;;;1.20;1.20;;;40.10;40.90;;;;;;5035047;28;20032;-60
2022/06/04 04:56:53;;;;;;;0.93;0.93;;;40.20;40.50;;;;;;5033243;28;20033;-60
2022/06/04 04:59:19;;;;;;;0.98;0.98;;;40.40;40.20;;;;;;5034416;28;20033;-61
2022/06/04 05:01:45;;;;;;;1.30;1.20;;;40.50;39.90;;;;;;5034824;28;20014;-61
2022/06/04 05:04:10;;;;;;;1.00;1.00;;;40.70;39.70;;;;;;5033735;28;20048;-60
2022/06/04 05:06:36;;;;;;;0.90;0.90;;;40.80;39.50;;;;;;5031382;28;20022;-60
2022/06/04 05:09:03;;;;;;;1.27;1.17;;;40.90;39.20;;;;;;5027855;28;20025;-61
2022/06/04 05:11:32;;;;;;;1.08;1.08;;;41.00;38.90;;;;;;5034732;28;20033;-61
2022/06/04 05:13:59;;;;;;;0.93;0.93;;;41.00;38.70;;;;;;5034979;28;20044;-60
2022/06/04 05:16:29;;;;;;;0.90;0.90;;;41.00;38.30;;;;;;5034828;28;20029;-61
2022/06/04 05:18:55;;;;;;;0.90;0.90;;;41.00;37.70;;;;;;5034823;28;20033;-61
2022/06/04 05:21:28;;;;;;;1.00;1.00;;;40.90;37.00;;;;;;5034809;28;20508;-61
2022/06/04 05:23:55;;;;;;;0.88;0.88;;;40.50;36.60;;;;;;5023681;28;20026;-61
2022/06/04 05:26:23;;;;;;;1.08;1.08;;;39.70;36.70;;;;;;5034925;28;20029;-60
2022/06/04 05:28:49;;;;;;;2.03;1.30;;;38.80;36.90;;;;;;5034706;28;20029;-60
2022/06/04 05:31:15;;;;;;;1.17;1.17;;;37.90;37.20;;;;;;5032593;28;20382;-60
2022/06/04 05:33:41;;;;;;;1.80;1.70;;;36.90;37.60;;;;;;5034315;28;20020;-60
2022/06/04 05:36:06;;;;;;;1.23;1.13;;;35.80;38.10;;;;;;5033922;28;20026;-59
2022/06/04 05:38:34;;;;;;;1.23;1.13;;;34.80;38.70;;;;;;5034186;28;20043;-60
2022/06/04 05:41:11;;;;;;;1.67;1.58;;;33.90;39.10;;;;;;5025157;28;20033;-60
2022/06/04 05:43:41;;;;;;;1.42;1.35;;;33.00;39.70;;;;;;5034384;28;20560;-60
2022/06/04 05:46:09;;;;;;;1.50;1.40;;;32.20;40.30;;;;;;5033864;28;20022;-60
2022/06/04 05:48:40;;;;;;;1.40;1.30;;;31.50;40.80;;;;;;5033717;28;20028;-60
2022/06/04 05:51:08;;;;;;;1.33;1.33;;;30.90;41.30;;;;;;5032225;28;20056;-60
2022/06/04 05:53:34;;;;;;;1.65;1.55;;;30.30;42.00;;;;;;5033097;28;20025;-60
2022/06/04 05:55:59;;;;;;;1.27;1.27;;;29.80;42.30;;;;;;5033198;28;20083;-60
2022/06/04 05:58:25;;;;;;;1.30;1.20;;;29.40;42.80;;;;;;5029431;28;20039;-60
2022/06/04 06:01:01;;;;;;;1.60;1.50;;;29.10;43.10;;;;;;5032847;28;20052;-60
2022/06/04 06:03:27;;;;;;;1.20;1.20;;;28.80;43.30;;;;;;5033621;28;20021;-60
2022/06/04 06:05:52;;;;;;;1.65;1.55;;;28.50;43.60;;;;;;5033706;28;20477;-60
2022/06/04 06:08:18;;;;;;;1.42;1.33;;;28.30;44.00;;;;;;5033362;28;20033;-60
2022/06/04 06:10:44;;;;;;;1.73;1.63;;;28.00;44.10;;;;;;5025637;28;20034;-60
2022/06/04 06:13:11;;;;;;;1.40;1.30;;;27.80;44.40;;;;;;5023961;28;20389;-60
2022/06/04 06:15:37;;;;;;;1.60;1.50;;;27.60;44.70;;;;;;5025072;28;20033;-60
2022/06/04 06:18:05;;;;;;;1.42;1.33;;;27.30;44.90;;;;;;5031510;28;20076;-60
2022/06/04 06:20:31;;;;;;;3.90;1.70;;;27.20;45.20;;;;;;5022218;28;20440;-60
2022/06/04 06:22:57;;;;;;;3.40;1.67;;;27.00;45.40;;;;;;5027575;28;20100;-60
2022/06/04 06:25:23;;;;;;;1.13;1.13;;;26.80;45.40;;;;;;5030156;28;20538;-60
2022/06/04 06:27:49;;;;;;;1.65;1.55;;;26.70;45.60;;;;;;5023524;28;20034;-60
2022/06/04 06:30:15;;;;;;;1.40;1.40;;;26.60;45.90;;;;;;5026828;28;20503;-60
2022/06/04 06:32:41;;;;;;;1.40;1.30;;;26.50;46.90;;;;;;5026712;28;20032;-60
2022/06/04 06:35:08;;;;;;;1.55;1.45;;;26.40;46.50;;;;;;5031147;28;20040;-60
2022/06/04 06:37:34;;;;;;;1.40;1.33;;;26.30;46.60;;;;;;5032430;28;20139;-60
2022/06/04 06:40:00;;;;;;;1.40;1.35;;;26.30;46.90;;;;;;5029511;28;20480;-60
2022/06/04 06:42:25;;;;;;;1.17;1.17;;;26.20;46.70;;;;;;5030801;28;20026;-60
2022/06/04 06:44:52;;;;;;;1.40;1.30;;;26.10;46.70;;;;;;5032687;28;20053;-60
2022/06/04 06:47:19;;;;;;;1.10;1.10;;;26.00;46.70;;;;;;5028738;28;20093;-60
2022/06/04 06:49:46;;;;;;;1.33;1.33;;;26.00;47.60;;;;;;5030087;28;20474;-60
2022/06/04 06:52:13;;;;;;;1.52;1.42;;;25.90;46.90;;;;;;5031807;28;20033;-60
2022/06/04 06:54:39;;;;;;;1.20;1.10;;;25.90;46.70;;;;;;5029840;28;20025;-60
2022/06/04 06:57:08;;;;;;;1.02;1.02;;;25.80;46.60;;;;;;5032679;28;20021;-60
2022/06/04 06:59:34;;;;;;;1.67;1.58;;;25.80;46.60;;;;;;5032499;28;20025;-60
2022/06/04 07:02:00;;;;;;;1.63;1.52;;;25.70;46.90;;;;;;5032874;28;20020;-60
2022/06/04 07:04:26;;;;;;;1.35;1.35;;;25.60;46.80;;;;;;5021857;28;20460;-59
2022/06/04 07:06:58;;;;;;;1.58;1.50;;;25.60;46.80;;;;;;5031677;28;20487;-60
2022/06/04 07:09:25;;;;;;;1.23;1.20;;;25.50;46.90;;;;;;5032899;28;20553;-60
2022/06/04 07:11:51;;;;;;;1.27;1.27;;;25.40;46.80;;;;;;5032402;28;20018;-60
2022/06/04 07:14:18;;;;;;;1.50;1.40;;;25.30;46.60;;;;;;5032728;28;20044;-60
2022/06/04 07:16:44;;;;;;;1.50;1.40;;;25.20;46.90;;;;;;5019368;28;20029;-60
2022/06/04 07:19:11;;;;;;;1.88;1.52;;;25.00;46.70;;;;;;5032415;28;20500;-60
2022/06/04 07:21:37;;;;;;;1.20;1.20;;;25.00;46.80;;;;;;5028431;28;20492;-60
2022/06/04 07:24:03;;;;;;;1.20;1.20;;;24.90;46.80;;;;;;5027899;28;20017;-60
2022/06/04 07:26:29;;;;;;;1.85;1.52;;;24.80;47.00;;;;;;5032109;28;20037;-60
2022/06/04 07:28:55;;;;;;;1.20;1.20;;;24.80;47.50;;;;;;5032571;28;20380;-59
2022/06/04 07:31:20;;;;;;;1.08;1.08;;;24.80;47.50;;;;;;5032650;28;20028;-60
2022/06/04 07:33:48;;;;;;;1.42;1.33;;;24.80;47.50;;;;;;5031886;28;20021;-60
2022/06/04 07:36:25;;;;;;;1.30;1.30;;;24.70;47.30;;;;;;5032124;28;20017;-60
2022/06/04 07:38:51;;;;;;;1.48;1.30;;;24.70;47.20;;;;;;5033420;28;20021;-60
2022/06/04 07:41:26;;;;;;;1.60;1.50;;;24.60;47.80;;;;;;5026582;28;20052;-60
2022/06/04 07:43:52;;;;;;;1.60;1.50;;;24.50;47.00;;;;;;5027897;28;20532;-60
2022/06/04 07:46:19;;;;;;;1.58;1.48;;;24.40;47.30;;;;;;5025075;28;20048;-60
2022/06/04 07:48:46;;;;;;;1.15;1.15;;;24.40;47.40;;;;;;5029148;28;20028;-60
2022/06/04 07:51:13;;;;;;;1.20;1.20;;;24.40;47.70;;;;;;5027451;28;20030;-60
2022/06/04 07:53:39;;;;;;;1.38;1.10;;;24.30;47.70;;;;;;5024230;28;20041;-60
2022/06/04 07:56:16;;;;;;;1.52;1.45;;;24.30;47.60;;;;;;5019278;28;20474;-60
2022/06/04 07:58:42;;;;;;;1.00;1.00;;;24.30;48.20;;;;;;5021671;28;20477;-60
2022/06/04 08:01:11;;;;;;;1.67;1.58;;;24.30;48.00;;;;;;5030459;28;20014;-60
2022/06/04 08:03:37;;;;;;;1.55;1.30;;;24.20;48.20;;;;;;5031746;28;20105;-60
2022/06/04 08:06:04;;;;;;;1.50;1.40;;;24.20;48.40;;;;;;5032062;28;20474;-60
2022/06/04 08:08:32;;;;;;;1.60;1.50;;;24.20;49.10;;;;;;5031977;28;20014;-60
2022/06/04 08:10:59;;;;;;;1.60;1.50;;;24.20;48.10;;;;;;5031963;28;20136;-60
2022/06/04 08:13:30;;;;;;;1.42;1.33;;;24.10;48.20;;;;;;5029993;28;20036;-60
2022/06/04 08:15:58;;;;;;;1.38;1.27;;;24.10;48.10;;;;;;5031589;28;20025;-60
2022/06/04 08:18:25;;;;;;;1.52;1.45;;;24.10;48.30;;;;;;5030095;28;20057;-60
2022/06/04 08:20:52;;;;;;;1.55;1.45;;;24.10;48.20;;;;;;5031041;28;20444;-60
2022/06/04 08:23:19;;;;;;;1.60;1.50;;;24.10;48.30;;;;;;5034067;28;20079;-60
2022/06/04 08:25:49;;;;;;;1.70;1.60;;;24.10;48.30;;;;;;5029798;28;20022;-60
2022/06/04 08:28:15;;;;;;;1.50;1.40;;;24.00;48.60;;;;;;5030323;28;20054;-60
2022/06/04 08:30:42;;;;;;;1.40;1.30;;;24.00;48.40;;;;;;5026642;28;20079;-60
2022/06/04 08:33:08;;;;;;;1.38;1.38;;;24.00;48.40;;;;;;5034195;28;20025;-60
2022/06/04 08:35:34;;;;;;;1.60;1.50;;;24.00;48.40;;;;;;5033179;28;20025;-60
2022/06/04 08:37:59;;;;;;;1.70;1.60;;;24.00;48.10;;;;;;5023496;28;20030;-60
2022/06/04 08:40:37;;;;;;;1.10;1.10;;;23.90;48.10;;;;;;5028953;28;20049;-60
2022/06/04 08:43:15;;;;;;;1.40;1.40;;;23.90;48.30;;;;;;5031356;28;20508;-60
2022/06/04 08:45:41;;;;;;;3.92;1.80;;;23.80;48.60;;;;;;5031910;28;20080;-60
2022/06/04 08:48:19;;;;;;;1.42;1.33;;;23.80;48.60;;;;;;5021637;28;20057;-61
2022/06/04 08:50:47;;;;;;;1.70;1.60;;;23.80;48.90;;;;;;5032948;28;20625;-60
2022/06/04 08:53:24;;;;;;;1.63;1.40;;;23.80;48.50;;;;;;5033396;28;20557;-60
2022/06/04 08:58:48;;;;;;;1.75;1.40;;;23.60;48.30;;;;;;5034452;28;20028;-60
2022/06/04 09:01:33;;;;;;;1.65;1.55;;;23.60;48.20;;;;;;5029338;28;20033;-60
2022/06/04 09:04:28;;;;;;;1.73;1.63;;;23.50;48.20;;;;;;5028153;28;20022;-60
2022/06/04 09:07:02;;;;;;;1.90;1.48;;;23.50;48.40;;;;;;5027651;28;20033;-60
2022/06/04 09:09:51;;;;;;;1.50;1.40;;;23.40;48.70;;;;;;5032838;28;20029;-60
2022/06/04 09:12:39;;;;;;;1.40;1.40;;;23.40;48.70;;;;;;5034586;28;20018;-60
2022/06/04 09:15:14;;;;;;;1.13;1.13;;;23.40;49.10;;;;;;5021306;28;20033;-60
2022/06/04 09:17:44;;;;;;;1.77;1.67;;;23.40;49.30;;;;;;5023933;28;20025;-60
2022/06/04 09:20:34;;;;;;;1.50;1.40;;;23.30;49.40;;;;;;5021622;28;20033;-60
2022/06/04 09:23:22;;;;;;;1.70;1.60;;;23.30;49.30;;;;;;5032776;28;20029;-61
2022/06/04 09:26:03;;;;;;;1.00;1.00;;;23.30;49.10;;;;;;5026831;28;20041;-61
2022/06/04 09:28:40;;;;;;;1.45;1.35;;;23.30;49.10;;;;;;5026095;28;20381;-61
2022/06/04 09:31:43;;;;;;;1.50;1.40;;;23.20;49.00;;;;;;5027863;28;20013;-61
2022/06/04 09:34:15;;;;;;;2.05;1.35;;;23.20;48.90;;;;;;5023928;28;20025;-61
2022/06/04 09:36:45;;;;;;;5.00;4.40;;;23.20;49.00;;;;;;5022521;28;20039;-60
2022/06/04 09:39:45;;;;;;;2.47;2.10;;;23.20;49.10;;;;;;5026273;28;20104;-60
2022/06/04 09:42:13;;;;;;;2.00;1.90;;;23.10;48.30;;;;;;5023957;28;20041;-60
2022/06/04 09:44:53;;;;;;;1.88;1.77;;;23.10;48.50;;;;;;5027767;28;20124;-60
2022/06/04 09:47:29;;;;;;;1.33;1.23;;;23.10;48.40;;;;;;5026075;28;20026;-60
2022/06/04 09:50:05;;;;;;;1.55;1.48;;;23.10;48.40;;;;;;5026372;28;20396;-60
2022/06/04 09:52:43;;;;;;;1.63;1.52;;;23.10;48.60;;;;;;5022556;28;20029;-60
2022/06/04 09:55:21;;;;;;;1.50;1.40;;;23.10;48.40;;;;;;5027178;28;20419;-60
2022/06/04 09:58:16;;;;;;;1.15;1.15;;;23.10;48.50;;;;;;5023680;28;20444;-60
2022/06/04 10:00:52;;;;;;;1.23;1.20;;;23.10;48.40;;;;;;5030259;28;20033;-60
2022/06/04 10:03:19;;;;;;;1.25;1.15;;;23.10;48.40;;;;;;5027258;28;20065;-60
2022/06/04 10:06:00;;;;;;;1.25;1.25;;;23.10;48.80;;;;;;5029983;28;20080;-60
2022/06/04 10:08:29;;;;;;;1.40;1.40;;;23.10;48.60;;;;;;5017507;28;20037;-60
2022/06/04 10:11:00;;;;;;;1.27;1.20;;;23.10;48.60;;;;;;5030393;28;20120;-60
2022/06/04 10:13:48;;;;;;;2.13;1.58;;;23.10;48.30;;;;;;5032453;28;20067;-61
2022/06/04 10:16:17;;;;;;;2.40;2.20;;;23.00;48.20;;;;;;5028622;28;20033;-61
2022/06/04 10:18:57;;;;;;;1.73;1.63;;;23.10;48.00;;;;;;5031826;28;20558;-60
2022/06/04 10:21:30;;;;;;;1.30;1.20;;;23.00;47.80;;;;;;5022774;28;20076;-61
2022/06/04 10:23:57;;;;;;;1.50;1.40;;;23.00;47.50;;;;;;5018904;28;20038;-60
2022/06/04 10:26:47;;;;;;;1.52;1.42;;;23.00;47.30;;;;;;5027854;28;20497;-59
2022/06/04 10:29:30;;;;;;;1.52;1.42;;;23.00;47.20;;;;;;5023579;28;20022;-58
2022/06/04 10:32:30;;;;;;;1.00;1.00;;;23.00;47.20;;;;;;5019238;28;20482;-59
2022/06/04 10:35:43;;;;;;;1.98;1.35;;;23.00;47.00;;;;;;5028488;28;20033;-59
2022/06/04 10:38:30;;;;;;;1.02;1.02;;;23.00;47.40;;;;;;5017354;28;20400;-59
2022/06/04 10:41:19;;;;;;;1.42;1.33;;;23.00;47.50;;;;;;5023154;28;20030;-59
2022/06/04 10:43:50;;;;;;;1.15;1.10;;;23.00;47.70;;;;;;5030173;28;20037;-59
2022/06/04 10:46:27;;;;;;;1.90;1.80;;;23.00;47.40;;;;;;5025702;28;20127;-59
2022/06/04 10:49:15;;;;;;;1.48;1.38;;;23.00;47.50;;;;;;5026923;28;20037;-59
2022/06/04 10:51:57;;;;;;;1.17;1.15;;;23.00;47.50;;;;;;5023637;28;20063;-59
2022/06/04 10:54:30;;;;;;;1.13;1.13;;;23.00;47.50;;;;;;5026416;28;20025;-59
2022/06/04 10:57:33;;;;;;;1.80;1.40;;;23.00;47.40;;;;;;5031674;28;20067;-59
2022/06/04 11:00:12;;;;;;;1.17;1.08;;;23.10;47.50;;;;;;5017222;28;20477;-59
2022/06/04 11:02:43;;;;;;;1.40;1.40;;;23.10;47.70;;;;;;5022866;28;20033;-59
2022/06/04 11:05:39;;;;;;;1.20;1.20;;;23.00;47.90;;;;;;5031669;28;20088;-59
2022/06/04 11:08:20;;;;;;;1.23;1.23;;;23.10;48.00;;;;;;5025286;28;20029;-59
2022/06/04 11:11:08;;;;;;;1.60;1.50;;;23.10;47.90;;;;;;5032139;28;20017;-59
2022/06/04 11:13:44;;;;;;;1.35;1.25;;;23.10;47.60;;;;;;5030541;28;20038;-59
2022/06/04 11:16:36;;;;;;;1.38;1.27;;;23.00;47.50;;;;;;5021418;28;20032;-59
2022/06/04 11:19:05;;;;;;;1.27;1.27;;;23.10;47.50;;;;;;5030399;28;20018;-59
2022/06/04 11:21:42;;;;;;;3.45;1.40;;;23.10;47.60;;;;;;5031641;28;20477;-59
2022/06/04 11:24:20;;;;;;;1.80;1.70;;;23.00;47.40;;;;;;5032308;28;20102;-59
2022/06/04 11:26:51;;;;;;;1.48;1.38;;;23.10;47.10;;;;;;5033289;28;20104;-59
2022/06/04 11:29:18;;;;;;;1.40;1.30;;;23.10;47.20;;;;;;5032004;28;20511;-59
2022/06/04 11:32:05;;;;;;;1.45;1.35;;;23.10;47.20;;;;;;5024540;28;20084;-59
2022/06/04 11:35:05;;;;;;;1.80;1.70;;;23.10;47.30;;;;;;5031336;28;20057;-59
2022/06/04 11:37:53;;;;;;;1.48;1.38;;;23.10;47.30;;;;;;5027795;28;20081;-59
2022/06/04 11:40:37;;;;;;;1.00;1.00;;;23.10;47.30;;;;;;5024561;28;20032;-59
2022/06/04 11:43:48;;;;;;;1.52;1.42;;;23.10;47.00;;;;;;5021171;28;20043;-59
2022/06/04 11:46:20;;;;;;;1.45;1.40;;;23.10;47.10;;;;;;5019502;28;20159;-59
2022/06/04 11:48:58;;;;;;;1.42;1.33;;;23.10;47.10;;;;;;5026674;28;20029;-59
2022/06/04 11:51:28;;;;;;;1.90;1.70;;;23.10;47.00;;;;;;5027026;28;20112;-59
2022/06/04 11:54:32;;;;;;;1.75;1.40;;;23.10;46.90;;;;;;5023195;28;20060;-59
2022/06/04 11:57:44;;;;;;;2.28;2.05;;;23.10;46.90;;;;;;5028491;28;20077;-59
2022/06/04 12:00:22;;;;;;;1.48;1.42;;;23.10;47.20;;;;;;4980153;28;20107;-61
2022/06/04 12:03:06;;;;;;;1.02;1.02;;;23.10;47.30;;;;;;5016649;28;20046;-60
2022/06/04 12:05:45;;;;;;;1.10;1.05;;;23.10;47.20;;;;;;5018378;28;20041;-60
2022/06/04 12:08:15;;;;;;;1.50;1.40;;;23.10;47.30;;;;;;5022297;28;20044;-60
2022/06/04 12:10:53;;;;;;;1.83;1.63;;;23.00;47.30;;;;;;5028639;28;20377;-60
2022/06/04 12:13:42;;;;;;;0.98;0.98;;;23.10;47.50;;;;;;5022662;28;20030;-60
2022/06/04 12:16:49;;;;;;;1.55;1.45;;;23.10;47.40;;;;;;5029885;28;20079;-60
2022/06/04 12:25:11;;;;;;;0.82;0.82;;;23.10;47.20;;;;;;5022580;28;20408;-60
2022/06/04 12:27:57;;;;;;;1.17;1.13;;;23.10;47.20;;;;;;5027147;28;20034;-60
2022/06/04 12:30:37;;;;;;;1.08;1.08;;;23.20;47.20;;;;;;5027546;28;20136;-59
2022/06/04 12:33:15;;;;;;;1.48;1.38;;;23.20;47.20;;;;;;5031443;28;20041;-60
2022/06/04 12:35:41;;;;;;;1.23;1.10;;;23.30;47.30;;;;;;5032343;28;20048;-60
2022/06/04 12:38:14;;;;;;;1.20;1.20;;;23.30;47.60;;;;;;5029812;28;20037;-59
2022/06/04 12:40:41;;;;;;;2.33;1.13;;;23.30;47.50;;;;;;5029483;28;20033;-60
2022/06/04 12:43:18;;;;;;;1.10;1.10;;;23.30;47.30;;;;;;5025194;28;20048;-59
2022/06/04 12:45:50;;;;;;;1.08;1.08;;;23.30;47.40;;;;;;5031216;28;20527;-60
2022/06/04 12:48:29;;;;;;;1.10;1.10;;;23.30;47.30;;;;;;5030678;28;20478;-60
2022/06/04 12:51:11;;;;;;;1.25;1.15;;;23.40;47.40;;;;;;5028662;28;20806;-60
2022/06/04 12:54:16;;;;;;;1.98;1.83;;;23.30;47.50;;;;;;5028083;28;20075;-59
2022/06/04 12:56:43;;;;;;;2.03;1.83;;;23.40;47.50;;;;;;5024356;28;20042;-60
2022/06/04 12:59:36;;;;;;;1.50;1.40;;;23.40;47.50;;;;;;5029412;28;20528;-60
2022/06/04 13:02:22;;;;;;;1.60;1.50;;;23.40;47.60;;;;;;5029330;28;20087;-59
2022/06/04 13:04:48;;;;;;;1.23;1.13;;;23.40;47.80;;;;;;5033656;28;20040;-59
2022/06/04 13:07:25;;;;;;;1.30;1.20;;;23.40;47.90;;;;;;5030333;28;20097;-59
2022/06/04 13:10:05;;;;;;;1.25;1.20;;;23.50;47.80;;;;;;5031424;28;20026;-60
2022/06/04 13:12:47;;;;;;;1.60;1.50;;;23.60;47.60;;;;;;5021423;28;20097;-59
2022/06/04 13:15:34;;;;;;;1.30;1.20;;;23.70;47.50;;;;;;5031241;28;20040;-60
2022/06/04 13:18:01;;;;;;;1.20;1.00;;;23.80;47.20;;;;;;5031867;28;20408;-60
2022/06/04 13:20:41;;;;;;;1.30;1.13;;;23.80;47.80;;;;;;5033099;28;20116;-60
2022/06/04 13:23:38;;;;;;;1.35;1.25;;;23.90;47.10;;;;;;5034804;28;20138;-59
2022/06/04 13:26:15;;;;;;;1.20;1.20;;;23.90;47.50;;;;;;5032407;28;20041;-60
2022/06/04 13:28:44;;;;;;;1.13;1.00;;;24.00;47.00;;;;;;5032668;28;20037;-60
2022/06/04 13:31:22;;;;;;;1.23;1.23;;;24.00;46.80;;;;;;5033202;28;20024;-60
2022/06/04 13:33:50;;;;;;;1.40;1.30;;;24.10;46.60;;;;;;5030839;28;20392;-60